sensor_id;sensor_type;location;lat;lon;timestamp;P1;durP1;ratioP1;P2;durP2;ratioP2
14007;SDS011;61651;45.508;12.232;2024-02-04T00:01:12;109.63;;;97.90;;
14007;SDS011;61651;45.508;12.232;2024-02-04T00:04:14;116.03;;;101.23;;
14007;SDS011;61651;45.508;12.232;2024-02-04T00:07:18;107.03;;;95.43;;
14007;SDS011;61651;45.508;12.232;2024-02-04T00:10:20;108.73;;;93.10;;
14007;SDS011;61651;45.508;12.232;2024-02-04T00:13:22;108.53;;;94.10;;
14007;SDS011;61651;45.508;12.232;2024-02-04T00:16:24;105.10;;;92.63;;
14007;SDS011;61651;45.508;12.232;2024-02-04T00:19:26;100.63;;;86.47;;
14007;SDS011;61651;45.508;12.232;2024-02-04T00:22:29;104.17;;;91.50;;
14007;SDS011;61651;45.508;12.232;2024-02-04T00:25:31;99.47;;;88.73;;
14007;SDS011;61651;45.508;12.232;2024-02-04T00:28:33;99.90;;;88.90;;
14007;SDS011;61651;45.508;12.232;2024-02-04T00:31:35;100.47;;;89.57;;
14007;SDS011;61651;45.508;12.232;2024-02-04T00:34:39;98.30;;;87.40;;
14007;SDS011;61651;45.508;12.232;2024-02-04T00:37:42;95.60;;;83.10;;
14007;SDS011;61651;45.508;12.232;2024-02-04T00:40:44;96.70;;;86.67;;
14007;SDS011;61651;45.508;12.232;2024-02-04T00:43:46;94.30;;;83.97;;
14007;SDS011;61651;45.508;12.232;2024-02-04T00:46:48;101.37;;;90.43;;
14007;SDS011;61651;45.508;12.232;2024-02-04T00:49:50;98.90;;;84.87;;
14007;SDS011;61651;45.508;12.232;2024-02-04T00:52:54;98.23;;;84.47;;
14007;SDS011;61651;45.508;12.232;2024-02-04T00:55:56;99.20;;;88.30;;
14007;SDS011;61651;45.508;12.232;2024-02-04T00:58:58;104.17;;;90.83;;
14007;SDS011;61651;45.508;12.232;2024-02-04T01:01:59;101.03;;;89.13;;
14007;SDS011;61651;45.508;12.232;2024-02-04T01:05:01;104.10;;;91.87;;
14007;SDS011;61651;45.508;12.232;2024-02-04T01:08:06;107.47;;;91.53;;
14007;SDS011;61651;45.508;12.232;2024-02-04T01:11:08;101.37;;;88.63;;
14007;SDS011;61651;45.508;12.232;2024-02-04T01:14:10;101.43;;;90.10;;
14007;SDS011;61651;45.508;12.232;2024-02-04T01:17:12;100.73;;;89.77;;
14007;SDS011;61651;45.508;12.232;2024-02-04T01:20:14;100.67;;;89.97;;
14007;SDS011;61651;45.508;12.232;2024-02-04T01:23:17;99.13;;;88.47;;
14007;SDS011;61651;45.508;12.232;2024-02-04T01:26:19;102.90;;;90.60;;
14007;SDS011;61651;45.508;12.232;2024-02-04T01:29:23;100.43;;;89.57;;
14007;SDS011;61651;45.508;12.232;2024-02-04T01:32:25;103.07;;;90.57;;
14007;SDS011;61651;45.508;12.232;2024-02-04T01:35:27;106.77;;;93.97;;
14007;SDS011;61651;45.508;12.232;2024-02-04T01:38:31;98.23;;;88.03;;
14007;SDS011;61651;45.508;12.232;2024-02-04T01:41:32;103.43;;;91.87;;
14007;SDS011;61651;45.508;12.232;2024-02-04T01:44:34;109.60;;;97.50;;
14007;SDS011;61651;45.508;12.232;2024-02-04T01:47:36;103.07;;;91.30;;
14007;SDS011;61651;45.508;12.232;2024-02-04T01:50:39;105.83;;;94.47;;
14007;SDS011;61651;45.508;12.232;2024-02-04T01:53:42;100.43;;;88.10;;
14007;SDS011;61651;45.508;12.232;2024-02-04T01:56:47;102.97;;;91.60;;
14007;SDS011;61651;45.508;12.232;2024-02-04T01:59:51;100.87;;;90.07;;
14007;SDS011;61651;45.508;12.232;2024-02-04T02:02:56;108.23;;;95.93;;
14007;SDS011;61651;45.508;12.232;2024-02-04T02:06:00;102.00;;;90.77;;
14007;SDS011;61651;45.508;12.232;2024-02-04T02:09:03;107.40;;;95.60;;
14007;SDS011;61651;45.508;12.232;2024-02-04T02:12:07;113.27;;;97.43;;
14007;SDS011;61651;45.508;12.232;2024-02-04T02:15:14;110.60;;;96.60;;
14007;SDS011;61651;45.508;12.232;2024-02-04T02:18:20;107.17;;;94.63;;
14007;SDS011;61651;45.508;12.232;2024-02-04T02:21:30;103.87;;;92.57;;
14007;SDS011;61651;45.508;12.232;2024-02-04T02:24:46;104.53;;;91.03;;
14007;SDS011;61651;45.508;12.232;2024-02-04T02:27:49;106.93;;;93.70;;
14007;SDS011;61651;45.508;12.232;2024-02-04T02:30:51;102.57;;;91.30;;
14007;SDS011;61651;45.508;12.232;2024-02-04T02:33:53;98.80;;;88.10;;
14007;SDS011;61651;45.508;12.232;2024-02-04T02:37:07;97.03;;;86.47;;
14007;SDS011;61651;45.508;12.232;2024-02-04T02:40:21;95.17;;;84.77;;
14007;SDS011;61651;45.508;12.232;2024-02-04T02:43:24;95.03;;;84.60;;
14007;SDS011;61651;45.508;12.232;2024-02-04T02:46:27;95.93;;;85.17;;
14007;SDS011;61651;45.508;12.232;2024-02-04T02:49:30;93.50;;;83.50;;
14007;SDS011;61651;45.508;12.232;2024-02-04T02:52:32;91.87;;;81.20;;
14007;SDS011;61651;45.508;12.232;2024-02-04T02:55:35;90.97;;;79.87;;
14007;SDS011;61651;45.508;12.232;2024-02-04T02:58:37;94.47;;;83.40;;
14007;SDS011;61651;45.508;12.232;2024-02-04T03:01:39;98.63;;;87.50;;
14007;SDS011;61651;45.508;12.232;2024-02-04T03:04:41;101.67;;;88.10;;
14007;SDS011;61651;45.508;12.232;2024-02-04T03:07:43;98.63;;;86.40;;
14007;SDS011;61651;45.508;12.232;2024-02-04T03:10:47;91.20;;;81.47;;
14007;SDS011;61651;45.508;12.232;2024-02-04T03:13:49;86.27;;;77.03;;
14007;SDS011;61651;45.508;12.232;2024-02-04T03:16:51;85.63;;;76.53;;
14007;SDS011;61651;45.508;12.232;2024-02-04T03:19:53;87.53;;;78.23;;
14007;SDS011;61651;45.508;12.232;2024-02-04T03:22:55;89.00;;;79.33;;
14007;SDS011;61651;45.508;12.232;2024-02-04T03:25:59;87.63;;;78.20;;
14007;SDS011;61651;45.508;12.232;2024-02-04T03:29:01;92.87;;;83.07;;
14007;SDS011;61651;45.508;12.232;2024-02-04T03:32:04;91.60;;;81.70;;
14007;SDS011;61651;45.508;12.232;2024-02-04T03:35:07;89.97;;;79.13;;
14007;SDS011;61651;45.508;12.232;2024-02-04T03:38:09;89.37;;;79.80;;
14007;SDS011;61651;45.508;12.232;2024-02-04T03:41:13;83.73;;;74.43;;
14007;SDS011;61651;45.508;12.232;2024-02-04T03:44:15;89.77;;;76.80;;
14007;SDS011;61651;45.508;12.232;2024-02-04T03:47:17;89.97;;;77.63;;
14007;SDS011;61651;45.508;12.232;2024-02-04T03:50:19;81.07;;;72.37;;
14007;SDS011;61651;45.508;12.232;2024-02-04T03:53:21;87.73;;;78.13;;
14007;SDS011;61651;45.508;12.232;2024-02-04T03:56:24;85.73;;;76.27;;
14007;SDS011;61651;45.508;12.232;2024-02-04T03:59:26;84.40;;;75.07;;
14007;SDS011;61651;45.508;12.232;2024-02-04T04:02:28;88.47;;;77.40;;
14007;SDS011;61651;45.508;12.232;2024-02-04T04:05:30;86.07;;;74.07;;
14007;SDS011;61651;45.508;12.232;2024-02-04T04:08:32;82.07;;;73.07;;
14007;SDS011;61651;45.508;12.232;2024-02-04T04:11:36;83.63;;;73.70;;
14007;SDS011;61651;45.508;12.232;2024-02-04T04:14:38;82.47;;;72.93;;
14007;SDS011;61651;45.508;12.232;2024-02-04T04:17:40;82.67;;;72.37;;
14007;SDS011;61651;45.508;12.232;2024-02-04T04:20:42;86.30;;;73.93;;
14007;SDS011;61651;45.508;12.232;2024-02-04T04:23:44;83.67;;;73.27;;
14007;SDS011;61651;45.508;12.232;2024-02-04T04:26:47;76.67;;;68.07;;
14007;SDS011;61651;45.508;12.232;2024-02-04T04:29:49;81.70;;;72.80;;
14007;SDS011;61651;45.508;12.232;2024-02-04T04:32:51;85.10;;;74.33;;
14007;SDS011;61651;45.508;12.232;2024-02-04T04:35:53;78.77;;;70.23;;
14007;SDS011;61651;45.508;12.232;2024-02-04T04:38:55;83.07;;;72.00;;
14007;SDS011;61651;45.508;12.232;2024-02-04T04:41:58;83.60;;;74.40;;
14007;SDS011;61651;45.508;12.232;2024-02-04T04:45:00;83.53;;;73.50;;
14007;SDS011;61651;45.508;12.232;2024-02-04T04:48:03;83.83;;;71.87;;
14007;SDS011;61651;45.508;12.232;2024-02-04T04:51:07;88.07;;;74.77;;
14007;SDS011;61651;45.508;12.232;2024-02-04T04:54:10;90.27;;;77.67;;
14007;SDS011;61651;45.508;12.232;2024-02-04T04:57:13;88.50;;;74.30;;
14007;SDS011;61651;45.508;12.232;2024-02-04T05:00:16;83.40;;;74.33;;
14007;SDS011;61651;45.508;12.232;2024-02-04T05:03:18;89.07;;;75.47;;
14007;SDS011;61651;45.508;12.232;2024-02-04T05:06:20;82.53;;;72.27;;
14007;SDS011;61651;45.508;12.232;2024-02-04T05:09:22;78.63;;;70.13;;
14007;SDS011;61651;45.508;12.232;2024-02-04T05:12:25;82.80;;;71.23;;
14007;SDS011;61651;45.508;12.232;2024-02-04T05:15:27;84.80;;;73.63;;
14007;SDS011;61651;45.508;12.232;2024-02-04T05:18:30;80.20;;;71.47;;
14007;SDS011;61651;45.508;12.232;2024-02-04T05:21:32;85.43;;;73.67;;
14007;SDS011;61651;45.508;12.232;2024-02-04T05:24:34;86.87;;;74.97;;
14007;SDS011;61651;45.508;12.232;2024-02-04T05:27:37;83.87;;;74.70;;
14007;SDS011;61651;45.508;12.232;2024-02-04T05:30:39;86.37;;;75.63;;
14007;SDS011;61651;45.508;12.232;2024-02-04T05:33:41;82.30;;;73.50;;
14007;SDS011;61651;45.508;12.232;2024-02-04T05:36:43;89.70;;;75.30;;
14007;SDS011;61651;45.508;12.232;2024-02-04T05:39:45;86.23;;;72.73;;
14007;SDS011;61651;45.508;12.232;2024-02-04T05:42:48;80.27;;;71.77;;
14007;SDS011;61651;45.508;12.232;2024-02-04T05:45:50;80.20;;;71.40;;
14007;SDS011;61651;45.508;12.232;2024-02-04T05:48:52;80.70;;;71.77;;
14007;SDS011;61651;45.508;12.232;2024-02-04T05:51:54;79.40;;;70.70;;
14007;SDS011;61651;45.508;12.232;2024-02-04T05:54:56;80.80;;;72.03;;
14007;SDS011;61651;45.508;12.232;2024-02-04T05:58:00;82.30;;;72.50;;
14007;SDS011;61651;45.508;12.232;2024-02-04T06:01:02;80.33;;;71.63;;
14007;SDS011;61651;45.508;12.232;2024-02-04T06:04:04;79.73;;;71.20;;
14007;SDS011;61651;45.508;12.232;2024-02-04T06:07:06;77.67;;;69.27;;
14007;SDS011;61651;45.508;12.232;2024-02-04T06:10:08;76.73;;;68.47;;
14007;SDS011;61651;45.508;12.232;2024-02-04T06:13:12;79.30;;;69.47;;
14007;SDS011;61651;45.508;12.232;2024-02-04T06:16:14;83.20;;;70.43;;
14007;SDS011;61651;45.508;12.232;2024-02-04T06:19:16;76.07;;;67.47;;
14007;SDS011;61651;45.508;12.232;2024-02-04T06:22:18;78.87;;;66.33;;
14007;SDS011;61651;45.508;12.232;2024-02-04T06:25:20;78.27;;;66.33;;
14007;SDS011;61651;45.508;12.232;2024-02-04T06:28:26;77.13;;;66.63;;
14007;SDS011;61651;45.508;12.232;2024-02-04T06:31:28;76.13;;;64.33;;
14007;SDS011;61651;45.508;12.232;2024-02-04T06:34:30;74.97;;;65.43;;
14007;SDS011;61651;45.508;12.232;2024-02-04T06:37:32;82.10;;;68.70;;
14007;SDS011;61651;45.508;12.232;2024-02-04T06:40:34;79.37;;;70.30;;
14007;SDS011;61651;45.508;12.232;2024-02-04T06:43:38;77.63;;;67.63;;
14007;SDS011;61651;45.508;12.232;2024-02-04T06:46:40;81.37;;;70.30;;
14007;SDS011;61651;45.508;12.232;2024-02-04T06:49:43;82.13;;;69.93;;
14007;SDS011;61651;45.508;12.232;2024-02-04T06:52:46;83.63;;;69.67;;
14007;SDS011;61651;45.508;12.232;2024-02-04T06:55:48;79.90;;;69.90;;
14007;SDS011;61651;45.508;12.232;2024-02-04T06:58:51;77.90;;;69.30;;
14007;SDS011;61651;45.508;12.232;2024-02-04T07:01:53;78.00;;;69.30;;
14007;SDS011;61651;45.508;12.232;2024-02-04T07:04:55;76.83;;;67.67;;
14007;SDS011;61651;45.508;12.232;2024-02-04T07:07:57;79.20;;;66.70;;
14007;SDS011;61651;45.508;12.232;2024-02-04T07:10:59;77.07;;;68.10;;
14007;SDS011;61651;45.508;12.232;2024-02-04T07:14:02;80.20;;;71.13;;
14007;SDS011;61651;45.508;12.232;2024-02-04T07:17:06;77.57;;;68.87;;
14007;SDS011;61651;45.508;12.232;2024-02-04T07:20:08;79.57;;;67.77;;
14007;SDS011;61651;45.508;12.232;2024-02-04T07:23:10;81.53;;;68.03;;
14007;SDS011;61651;45.508;12.232;2024-02-04T07:26:12;77.07;;;67.40;;
14007;SDS011;61651;45.508;12.232;2024-02-04T07:29:16;75.17;;;66.93;;
14007;SDS011;61651;45.508;12.232;2024-02-04T07:32:18;81.50;;;72.77;;
14007;SDS011;61651;45.508;12.232;2024-02-04T07:35:20;89.03;;;76.23;;
14007;SDS011;61651;45.508;12.232;2024-02-04T07:38:22;78.80;;;70.30;;
14007;SDS011;61651;45.508;12.232;2024-02-04T07:41:24;78.33;;;67.63;;
14007;SDS011;61651;45.508;12.232;2024-02-04T07:44:27;75.20;;;66.93;;
14007;SDS011;61651;45.508;12.232;2024-02-04T07:47:29;82.37;;;69.90;;
14007;SDS011;61651;45.508;12.232;2024-02-04T07:50:31;75.13;;;66.57;;
14007;SDS011;61651;45.508;12.232;2024-02-04T07:53:33;88.47;;;79.03;;
14007;SDS011;61651;45.508;12.232;2024-02-04T07:56:36;86.80;;;76.73;;
14007;SDS011;61651;45.508;12.232;2024-02-04T07:59:40;80.90;;;72.17;;
14007;SDS011;61651;45.508;12.232;2024-02-04T08:02:43;82.30;;;73.43;;
14007;SDS011;61651;45.508;12.232;2024-02-04T08:05:45;84.20;;;74.80;;
14007;SDS011;61651;45.508;12.232;2024-02-04T08:08:47;82.40;;;73.63;;
14007;SDS011;61651;45.508;12.232;2024-02-04T08:11:49;82.73;;;74.03;;
14007;SDS011;61651;45.508;12.232;2024-02-04T08:14:53;82.20;;;71.40;;
14007;SDS011;61651;45.508;12.232;2024-02-04T08:17:55;85.23;;;75.77;;
14007;SDS011;61651;45.508;12.232;2024-02-04T08:20:57;79.93;;;71.60;;
14007;SDS011;61651;45.508;12.232;2024-02-04T08:23:59;81.93;;;73.20;;
14007;SDS011;61651;45.508;12.232;2024-02-04T08:27:01;79.83;;;71.23;;
14007;SDS011;61651;45.508;12.232;2024-02-04T08:30:06;80.13;;;71.37;;
14007;SDS011;61651;45.508;12.232;2024-02-04T08:33:10;82.13;;;73.47;;
14007;SDS011;61651;45.508;12.232;2024-02-04T08:36:12;84.23;;;75.30;;
14007;SDS011;61651;45.508;12.232;2024-02-04T08:39:14;81.17;;;72.50;;
14007;SDS011;61651;45.508;12.232;2024-02-04T08:42:16;76.40;;;68.07;;
14007;SDS011;61651;45.508;12.232;2024-02-04T08:45:19;79.77;;;71.03;;
14007;SDS011;61651;45.508;12.232;2024-02-04T08:48:21;77.60;;;68.63;;
14007;SDS011;61651;45.508;12.232;2024-02-04T08:51:23;77.80;;;69.83;;
14007;SDS011;61651;45.508;12.232;2024-02-04T08:54:25;71.77;;;62.80;;
14007;SDS011;61651;45.508;12.232;2024-02-04T08:57:27;78.10;;;69.50;;
14007;SDS011;61651;45.508;12.232;2024-02-04T09:00:31;77.03;;;68.93;;
14007;SDS011;61651;45.508;12.232;2024-02-04T09:03:33;70.47;;;62.97;;
14007;SDS011;61651;45.508;12.232;2024-02-04T09:06:35;73.00;;;64.97;;
14007;SDS011;61651;45.508;12.232;2024-02-04T09:09:37;71.70;;;63.97;;
14007;SDS011;61651;45.508;12.232;2024-02-04T09:12:40;95.60;;;85.83;;
14007;SDS011;61651;45.508;12.232;2024-02-04T09:15:43;75.20;;;67.13;;
14007;SDS011;61651;45.508;12.232;2024-02-04T09:18:45;76.90;;;65.70;;
14007;SDS011;61651;45.508;12.232;2024-02-04T09:21:47;74.00;;;65.17;;
14007;SDS011;61651;45.508;12.232;2024-02-04T09:24:49;73.03;;;65.00;;
14007;SDS011;61651;45.508;12.232;2024-02-04T09:27:51;73.10;;;65.37;;
14007;SDS011;61651;45.508;12.232;2024-02-04T09:30:55;75.77;;;66.00;;
14007;SDS011;61651;45.508;12.232;2024-02-04T09:33:57;81.70;;;72.07;;
14007;SDS011;61651;45.508;12.232;2024-02-04T09:36:59;81.23;;;72.80;;
14007;SDS011;61651;45.508;12.232;2024-02-04T09:40:01;78.73;;;69.87;;
14007;SDS011;61651;45.508;12.232;2024-02-04T09:43:04;83.57;;;69.53;;
14007;SDS011;61651;45.508;12.232;2024-02-04T09:46:09;81.70;;;70.93;;
14007;SDS011;61651;45.508;12.232;2024-02-04T09:49:11;81.50;;;72.80;;
14007;SDS011;61651;45.508;12.232;2024-02-04T09:52:16;85.73;;;72.67;;
14007;SDS011;61651;45.508;12.232;2024-02-04T09:55:21;79.90;;;71.17;;
14007;SDS011;61651;45.508;12.232;2024-02-04T09:58:23;79.67;;;70.67;;
14007;SDS011;61651;45.508;12.232;2024-02-04T10:01:27;83.30;;;74.40;;
14007;SDS011;61651;45.508;12.232;2024-02-04T10:04:29;78.27;;;69.67;;
14007;SDS011;61651;45.508;12.232;2024-02-04T10:07:31;81.47;;;72.23;;
14007;SDS011;61651;45.508;12.232;2024-02-04T10:10:33;75.37;;;66.67;;
14007;SDS011;61651;45.508;12.232;2024-02-04T10:13:41;77.57;;;69.10;;
14007;SDS011;61651;45.508;12.232;2024-02-04T10:16:46;88.82;;;79.95;;
14007;SDS011;61651;45.508;12.232;2024-02-04T10:19:48;81.70;;;73.33;;
14007;SDS011;61651;45.508;12.232;2024-02-04T10:22:50;84.40;;;75.33;;
14007;SDS011;61651;45.508;12.232;2024-02-04T10:25:57;88.00;;;78.60;;
14007;SDS011;61651;45.508;12.232;2024-02-04T10:28:59;97.20;;;86.70;;
14007;SDS011;61651;45.508;12.232;2024-02-04T10:32:03;96.30;;;85.93;;
14007;SDS011;61651;45.508;12.232;2024-02-04T10:35:06;97.27;;;85.57;;
14007;SDS011;61651;45.508;12.232;2024-02-04T10:38:09;94.97;;;84.57;;
14007;SDS011;61651;45.508;12.232;2024-02-04T10:41:13;94.07;;;83.90;;
14007;SDS011;61651;45.508;12.232;2024-02-04T10:44:16;97.30;;;86.77;;
14007;SDS011;61651;45.508;12.232;2024-02-04T10:47:26;111.05;;;100.05;;
14007;SDS011;61651;45.508;12.232;2024-02-04T10:50:33;98.97;;;88.63;;
14007;SDS011;61651;45.508;12.232;2024-02-04T10:53:36;100.10;;;89.33;;
14007;SDS011;61651;45.508;12.232;2024-02-04T10:56:40;98.30;;;87.37;;
14007;SDS011;61651;45.508;12.232;2024-02-04T10:59:44;97.55;;;87.05;;
14007;SDS011;61651;45.508;12.232;2024-02-04T11:02:49;96.50;;;85.97;;
14007;SDS011;61651;45.508;12.232;2024-02-04T11:05:55;98.03;;;87.30;;
14007;SDS011;61651;45.508;12.232;2024-02-04T11:08:57;99.13;;;87.57;;
14007;SDS011;61651;45.508;12.232;2024-02-04T11:12:01;94.57;;;84.40;;
14007;SDS011;61651;45.508;12.232;2024-02-04T11:15:08;100.97;;;90.27;;
14007;SDS011;61651;45.508;12.232;2024-02-04T11:22:04;85.93;;;76.97;;
14007;SDS011;61651;45.508;12.232;2024-02-04T11:25:44;77.20;;;68.77;;
14007;SDS011;61651;45.508;12.232;2024-02-04T11:28:48;78.50;;;69.93;;
14007;SDS011;61651;45.508;12.232;2024-02-04T11:31:51;78.53;;;70.03;;
14007;SDS011;61651;45.508;12.232;2024-02-04T11:34:53;78.73;;;70.17;;
14007;SDS011;61651;45.508;12.232;2024-02-04T11:38:02;85.73;;;76.57;;
14007;SDS011;61651;45.508;12.232;2024-02-04T11:41:04;90.77;;;81.03;;
14007;SDS011;61651;45.508;12.232;2024-02-04T11:44:06;88.90;;;79.27;;
14007;SDS011;61651;45.508;12.232;2024-02-04T11:47:09;94.13;;;81.97;;
14007;SDS011;61651;45.508;12.232;2024-02-04T11:50:12;95.03;;;84.37;;
14007;SDS011;61651;45.508;12.232;2024-02-04T11:53:15;95.63;;;84.57;;
14007;SDS011;61651;45.508;12.232;2024-02-04T11:56:17;96.30;;;85.77;;
14007;SDS011;61651;45.508;12.232;2024-02-04T11:59:20;90.23;;;80.47;;
14007;SDS011;61651;45.508;12.232;2024-02-04T12:02:23;100.47;;;87.27;;
14007;SDS011;61651;45.508;12.232;2024-02-04T12:05:25;84.57;;;75.07;;
14007;SDS011;61651;45.508;12.232;2024-02-04T12:08:29;84.70;;;72.70;;
14007;SDS011;61651;45.508;12.232;2024-02-04T12:11:33;79.93;;;67.53;;
14007;SDS011;61651;45.508;12.232;2024-02-04T12:14:36;85.27;;;73.07;;
14007;SDS011;61651;45.508;12.232;2024-02-04T12:17:40;85.67;;;71.90;;
14007;SDS011;61651;45.508;12.232;2024-02-04T12:20:42;77.10;;;66.17;;
14007;SDS011;61651;45.508;12.232;2024-02-04T12:23:45;80.37;;;69.40;;
14007;SDS011;61651;45.508;12.232;2024-02-04T12:26:48;79.37;;;69.67;;
14007;SDS011;61651;45.508;12.232;2024-02-04T12:29:50;77.13;;;68.60;;
14007;SDS011;61651;45.508;12.232;2024-02-04T12:32:56;77.63;;;67.70;;
14007;SDS011;61651;45.508;12.232;2024-02-04T12:35:59;78.93;;;68.70;;
14007;SDS011;61651;45.508;12.232;2024-02-04T12:39:03;76.97;;;65.23;;
14007;SDS011;61651;45.508;12.232;2024-02-04T12:42:09;77.03;;;67.60;;
14007;SDS011;61651;45.508;12.232;2024-02-04T12:45:13;78.17;;;64.43;;
14007;SDS011;61651;45.508;12.232;2024-02-04T12:48:15;77.07;;;66.00;;
14007;SDS011;61651;45.508;12.232;2024-02-04T12:51:24;78.13;;;63.70;;
14007;SDS011;61651;45.508;12.232;2024-02-04T12:54:28;74.90;;;61.17;;
14007;SDS011;61651;45.508;12.232;2024-02-04T12:57:31;76.20;;;63.57;;
14007;SDS011;61651;45.508;12.232;2024-02-04T13:00:33;77.87;;;63.67;;
14007;SDS011;61651;45.508;12.232;2024-02-04T13:03:36;74.27;;;62.10;;
14007;SDS011;61651;45.508;12.232;2024-02-04T13:06:38;70.57;;;58.87;;
14007;SDS011;61651;45.508;12.232;2024-02-04T13:09:43;72.93;;;62.37;;
14007;SDS011;61651;45.508;12.232;2024-02-04T13:12:45;70.83;;;62.80;;
14007;SDS011;61651;45.508;12.232;2024-02-04T13:15:47;73.80;;;65.90;;
14007;SDS011;61651;45.508;12.232;2024-02-04T13:18:52;75.83;;;67.67;;
14007;SDS011;61651;45.508;12.232;2024-02-04T13:21:54;78.53;;;69.67;;
14007;SDS011;61651;45.508;12.232;2024-02-04T13:24:58;80.03;;;71.20;;
14007;SDS011;61651;45.508;12.232;2024-02-04T13:28:00;76.93;;;68.87;;
14007;SDS011;61651;45.508;12.232;2024-02-04T13:31:02;73.40;;;65.57;;
14007;SDS011;61651;45.508;12.232;2024-02-04T13:34:05;76.50;;;68.30;;
14007;SDS011;61651;45.508;12.232;2024-02-04T13:37:07;73.50;;;65.67;;
14007;SDS011;61651;45.508;12.232;2024-02-04T13:40:11;73.75;;;66.03;;
14007;SDS011;61651;45.508;12.232;2024-02-04T13:43:13;75.33;;;67.37;;
14007;SDS011;61651;45.508;12.232;2024-02-04T13:46:15;73.03;;;65.33;;
14007;SDS011;61651;45.508;12.232;2024-02-04T13:49:17;70.73;;;63.20;;
14007;SDS011;61651;45.508;12.232;2024-02-04T13:52:19;71.97;;;64.27;;
14007;SDS011;61651;45.508;12.232;2024-02-04T13:55:22;72.90;;;63.92;;
14007;SDS011;61651;45.508;12.232;2024-02-04T13:58:24;68.88;;;61.58;;
14007;SDS011;61651;45.508;12.232;2024-02-04T14:01:26;72.47;;;64.63;;
14007;SDS011;61651;45.508;12.232;2024-02-04T14:04:29;74.90;;;67.00;;
14007;SDS011;61651;45.508;12.232;2024-02-04T14:07:31;74.07;;;65.35;;
14007;SDS011;61651;45.508;12.232;2024-02-04T14:10:35;77.35;;;69.43;;
14007;SDS011;61651;45.508;12.232;2024-02-04T14:13:38;74.05;;;66.30;;
14007;SDS011;61651;45.508;12.232;2024-02-04T14:16:40;76.20;;;67.70;;
14007;SDS011;61651;45.508;12.232;2024-02-04T14:19:42;76.20;;;68.10;;
14007;SDS011;61651;45.508;12.232;2024-02-04T14:22:48;76.63;;;68.22;;
14007;SDS011;61651;45.508;12.232;2024-02-04T14:25:52;75.03;;;67.03;;
14007;SDS011;61651;45.508;12.232;2024-02-04T14:28:54;74.82;;;66.75;;
14007;SDS011;61651;45.508;12.232;2024-02-04T14:31:56;71.00;;;63.38;;
14007;SDS011;61651;45.508;12.232;2024-02-04T14:34:58;71.32;;;63.80;;
14007;SDS011;61651;45.508;12.232;2024-02-04T14:38:00;74.85;;;66.80;;
14007;SDS011;61651;45.508;12.232;2024-02-04T14:41:04;73.97;;;65.60;;
14007;SDS011;61651;45.508;12.232;2024-02-04T14:44:06;72.53;;;64.82;;
14007;SDS011;61651;45.508;12.232;2024-02-04T14:47:08;71.60;;;64.03;;
14007;SDS011;61651;45.508;12.232;2024-02-04T14:50:11;71.20;;;63.50;;
14007;SDS011;61651;45.508;12.232;2024-02-04T14:53:13;74.70;;;66.75;;
14007;SDS011;61651;45.508;12.232;2024-02-04T14:56:17;72.35;;;64.68;;
14007;SDS011;61651;45.508;12.232;2024-02-04T14:59:19;75.18;;;67.28;;
14007;SDS011;61651;45.508;12.232;2024-02-04T15:02:21;73.18;;;65.57;;
14007;SDS011;61651;45.508;12.232;2024-02-04T15:05:23;77.28;;;68.55;;
14007;SDS011;61651;45.508;12.232;2024-02-04T15:08:25;77.55;;;68.85;;
14007;SDS011;61651;45.508;12.232;2024-02-04T15:11:28;77.43;;;69.07;;
14007;SDS011;61651;45.508;12.232;2024-02-04T15:14:31;76.00;;;67.47;;
14007;SDS011;61651;45.508;12.232;2024-02-04T15:17:33;75.18;;;67.32;;
14007;SDS011;61651;45.508;12.232;2024-02-04T15:20:36;77.93;;;69.55;;
14007;SDS011;61651;45.508;12.232;2024-02-04T15:23:38;80.13;;;71.35;;
14007;SDS011;61651;45.508;12.232;2024-02-04T15:26:42;81.60;;;71.53;;
14007;SDS011;61651;45.508;12.232;2024-02-04T15:29:47;79.78;;;69.60;;
14007;SDS011;61651;45.508;12.232;2024-02-04T15:32:49;80.43;;;72.05;;
14007;SDS011;61651;45.508;12.232;2024-02-04T15:35:54;80.03;;;71.57;;
14007;SDS011;61651;45.508;12.232;2024-02-04T15:38:56;80.82;;;71.90;;
14007;SDS011;61651;45.508;12.232;2024-02-04T15:42:00;78.90;;;70.68;;
14007;SDS011;61651;45.508;12.232;2024-02-04T15:45:02;84.10;;;75.07;;
14007;SDS011;61651;45.508;12.232;2024-02-04T15:48:04;78.73;;;70.37;;
14007;SDS011;61651;45.508;12.232;2024-02-04T15:51:07;77.65;;;68.88;;
14007;SDS011;61651;45.508;12.232;2024-02-04T15:54:10;72.00;;;64.40;;
14007;SDS011;61651;45.508;12.232;2024-02-04T15:57:14;74.67;;;66.87;;
14007;SDS011;61651;45.508;12.232;2024-02-04T16:00:21;76.03;;;67.73;;
14007;SDS011;61651;45.508;12.232;2024-02-04T16:03:26;78.03;;;67.10;;
14007;SDS011;61651;45.508;12.232;2024-02-04T16:06:28;76.03;;;68.03;;
14007;SDS011;61651;45.508;12.232;2024-02-04T16:09:31;76.13;;;68.03;;
14007;SDS011;61651;45.508;12.232;2024-02-04T16:12:36;75.47;;;67.30;;
14007;SDS011;61651;45.508;12.232;2024-02-04T16:15:39;76.80;;;68.57;;
14007;SDS011;61651;45.508;12.232;2024-02-04T16:18:47;80.70;;;68.23;;
14007;SDS011;61651;45.508;12.232;2024-02-04T16:21:49;77.23;;;69.03;;
14007;SDS011;61651;45.508;12.232;2024-02-04T16:24:52;74.70;;;66.70;;
14007;SDS011;61651;45.508;12.232;2024-02-04T16:27:56;76.30;;;67.07;;
14007;SDS011;61651;45.508;12.232;2024-02-04T16:30:58;76.23;;;67.93;;
14007;SDS011;61651;45.508;12.232;2024-02-04T16:34:00;75.73;;;67.87;;
14007;SDS011;61651;45.508;12.232;2024-02-04T16:37:02;77.50;;;68.00;;
14007;SDS011;61651;45.508;12.232;2024-02-04T16:40:05;76.27;;;68.13;;
14007;SDS011;61651;45.508;12.232;2024-02-04T16:43:10;77.63;;;69.33;;
14007;SDS011;61651;45.508;12.232;2024-02-04T16:46:13;77.40;;;69.10;;
14007;SDS011;61651;45.508;12.232;2024-02-04T16:49:15;78.90;;;70.60;;
14007;SDS011;61651;45.508;12.232;2024-02-04T16:52:17;77.60;;;69.13;;
14007;SDS011;61651;45.508;12.232;2024-02-04T16:55:19;82.90;;;71.47;;
14007;SDS011;61651;45.508;12.232;2024-02-04T16:58:23;78.13;;;69.77;;
14007;SDS011;61651;45.508;12.232;2024-02-04T17:01:25;77.67;;;69.37;;
14007;SDS011;61651;45.508;12.232;2024-02-04T17:04:27;76.57;;;68.50;;
14007;SDS011;61651;45.508;12.232;2024-02-04T17:07:29;81.30;;;72.57;;
14007;SDS011;61651;45.508;12.232;2024-02-04T17:10:32;78.97;;;70.57;;
14007;SDS011;61651;45.508;12.232;2024-02-04T17:13:36;78.17;;;69.63;;
14007;SDS011;61651;45.508;12.232;2024-02-04T17:16:40;76.23;;;68.10;;
14007;SDS011;61651;45.508;12.232;2024-02-04T17:19:50;77.47;;;69.27;;
14007;SDS011;61651;45.508;12.232;2024-02-04T17:23:07;80.30;;;71.70;;
14007;SDS011;61651;45.508;12.232;2024-02-04T17:26:10;79.50;;;69.83;;
14007;SDS011;61651;45.508;12.232;2024-02-04T17:29:16;76.93;;;67.40;;
14007;SDS011;61651;45.508;12.232;2024-02-04T17:32:19;79.33;;;70.23;;
14007;SDS011;61651;45.508;12.232;2024-02-04T17:35:25;75.57;;;67.27;;